Time;durP1;ratioP1;P1;durP2;ratioP2;P2;SDS_P1;SDS_P2;PMS_P1;PMS_P2;Temp;Humidity;BMP_temperature;BMP_pressure;BME280_temperature;BME280_humidity;BME280_pressure;Samples;Min_cycle;Max_cycle;Signal;HPM_P1;HPM_P2
2023/08/18 00:02:23;;;;;;;36.90;21.87;;;18.50;99.90;;;;;;5030380;28;20218;-73
2023/08/18 00:04:49;;;;;;;33.57;21.23;;;18.40;99.90;;;;;;5034301;28;20218;-73
2023/08/18 00:07:15;;;;;;;37.07;22.70;;;18.40;99.90;;;;;;5034479;28;20172;-73
2023/08/18 00:09:43;;;;;;;33.03;21.50;;;18.40;99.90;;;;;;5034314;28;20183;-73
2023/08/18 00:12:09;;;;;;;32.77;21.53;;;18.30;99.90;;;;;;5033867;28;20172;-73
2023/08/18 00:14:35;;;;;;;35.20;21.60;;;18.40;99.90;;;;;;5034090;28;20203;-73
2023/08/18 00:17:01;;;;;;;36.90;21.47;;;18.40;99.90;;;;;;5034049;28;20182;-73
2023/08/18 00:19:26;;;;;;;33.90;22.37;;;18.40;99.90;;;;;;5034144;28;20175;-73
2023/08/18 00:21:52;;;;;;;37.93;22.73;;;18.40;99.90;;;;;;5033839;28;20176;-73
2023/08/18 00:24:17;;;;;;;37.83;22.73;;;18.40;99.90;;;;;;5033827;28;20723;-73
2023/08/18 00:26:45;;;;;;;33.93;22.00;;;18.30;99.90;;;;;;5033778;28;20241;-73
2023/08/18 00:29:10;;;;;;;36.03;24.43;;;18.30;99.90;;;;;;5034186;28;20191;-73
2023/08/18 00:31:36;;;;;;;36.47;23.63;;;18.30;99.90;;;;;;5033577;28;20206;-73
2023/08/18 00:34:03;;;;;;;40.20;23.30;;;18.30;99.90;;;;;;5033624;28;20195;-73
2023/08/18 00:36:30;;;;;;;41.10;23.67;;;18.30;99.90;;;;;;5033638;28;20226;-73
2023/08/18 00:38:55;;;;;;;33.47;22.53;;;18.20;99.90;;;;;;5033788;28;20259;-73
2023/08/18 00:41:21;;;;;;;32.23;21.37;;;18.20;99.90;;;;;;5033477;28;20250;-73
2023/08/18 00:43:47;;;;;;;36.77;22.50;;;18.20;99.90;;;;;;5033398;28;20314;-73
2023/08/18 00:46:14;;;;;;;43.10;22.20;;;18.20;99.90;;;;;;5033538;28;20641;-73
2023/08/18 00:48:40;;;;;;;35.13;21.80;;;18.20;99.90;;;;;;5033236;28;20207;-73
2023/08/18 00:51:06;;;;;;;33.53;22.10;;;18.20;99.90;;;;;;5033639;28;20206;-73
2023/08/18 00:53:33;;;;;;;40.63;23.70;;;18.20;99.90;;;;;;5032990;28;20669;-73
2023/08/18 00:55:58;;;;;;;38.47;24.37;;;18.20;99.90;;;;;;5033728;28;20175;-73
2023/08/18 00:58:24;;;;;;;38.80;24.07;;;18.10;99.90;;;;;;5033239;28;20262;-73
2023/08/18 01:00:50;;;;;;;42.10;25.07;;;18.00;99.90;;;;;;5033528;28;20168;-73
2023/08/18 01:03:17;;;;;;;43.63;25.10;;;18.00;99.90;;;;;;5032644;28;20201;-73
2023/08/18 01:05:43;;;;;;;43.70;24.80;;;18.00;99.90;;;;;;5032986;28;20203;-73
2023/08/18 01:08:09;;;;;;;39.47;24.13;;;18.00;99.90;;;;;;5031891;28;20179;-73
2023/08/18 01:10:45;;;;;;;43.97;25.37;;;18.00;99.90;;;;;;5033027;28;20176;-73
2023/08/18 01:13:17;;;;;;;39.27;24.57;;;18.00;99.90;;;;;;5033091;28;20195;-73
2023/08/18 01:15:45;;;;;;;47.43;25.33;;;18.00;99.90;;;;;;5031231;28;20183;-73
2023/08/18 01:18:12;;;;;;;39.27;23.37;;;18.00;99.90;;;;;;5032858;28;20179;-73
2023/08/18 01:20:39;;;;;;;47.40;26.53;;;18.00;99.90;;;;;;5032328;28;20183;-73
2023/08/18 01:23:05;;;;;;;45.83;24.83;;;18.00;99.90;;;;;;5032533;28;20207;-73
2023/08/18 01:25:31;;;;;;;41.90;24.70;;;18.00;99.90;;;;;;5032726;28;20570;-73
2023/08/18 01:27:59;;;;;;;48.80;26.70;;;18.00;99.90;;;;;;5032901;28;20664;-73
2023/08/18 01:30:40;;;;;;;44.27;24.80;;;18.00;99.90;;;;;;5032591;28;20195;-73
2023/08/18 01:33:14;;;;;;;42.17;24.70;;;18.00;99.90;;;;;;5032624;28;20468;-73
2023/08/18 01:35:44;;;;;;;50.23;27.57;;;18.00;99.90;;;;;;5031975;28;20297;-73
2023/08/18 01:38:10;;;;;;;42.10;25.97;;;17.90;99.90;;;;;;5032478;28;20192;-72
2023/08/18 01:40:39;;;;;;;40.37;24.53;;;17.90;99.90;;;;;;5032400;28;20245;-72
2023/08/18 01:43:04;;;;;;;43.87;26.60;;;18.00;99.90;;;;;;5030967;28;20241;-72
2023/08/18 01:45:32;;;;;;;45.00;27.43;;;17.90;99.90;;;;;;5032326;28;20199;-72
2023/08/18 01:47:57;;;;;;;44.00;26.03;;;17.90;99.90;;;;;;5032330;28;20184;-72
2023/08/18 01:50:23;;;;;;;48.43;26.87;;;17.90;99.90;;;;;;5031024;28;20233;-74
2023/08/18 01:52:48;;;;;;;47.40;27.47;;;17.80;99.90;;;;;;5031607;28;20180;-73
2023/08/18 01:55:14;;;;;;;44.67;26.37;;;17.80;99.90;;;;;;5031269;28;20172;-74
2023/08/18 01:57:40;;;;;;;46.87;26.97;;;17.80;99.90;;;;;;5031049;28;20176;-73
2023/08/18 02:00:06;;;;;;;43.57;25.87;;;17.80;99.90;;;;;;5031609;28;20656;-74
2023/08/18 02:02:31;;;;;;;47.07;25.63;;;17.80;99.90;;;;;;5031206;28;20248;-73
2023/08/18 02:04:57;;;;;;;44.53;25.97;;;17.80;99.90;;;;;;5031495;28;20705;-73
2023/08/18 02:07:22;;;;;;;51.63;26.73;;;17.80;99.90;;;;;;5031783;28;20182;-73
2023/08/18 02:09:48;;;;;;;49.00;27.70;;;17.80;99.90;;;;;;5031682;28;20187;-74
2023/08/18 02:12:14;;;;;;;53.23;25.63;;;17.70;99.90;;;;;;5031440;28;20195;-74
2023/08/18 02:14:39;;;;;;;52.83;27.40;;;17.70;99.90;;;;;;5032032;28;20203;-74
2023/08/18 02:17:05;;;;;;;51.23;28.20;;;17.70;99.90;;;;;;5031828;28;20187;-73
2023/08/18 02:19:30;;;;;;;54.43;26.33;;;17.70;99.90;;;;;;5032157;28;20190;-73
2023/08/18 02:21:56;;;;;;;50.43;26.60;;;17.60;99.90;;;;;;5031542;28;20661;-74
2023/08/18 02:24:21;;;;;;;48.80;28.53;;;17.60;99.90;;;;;;5031377;28;20199;-73
2023/08/18 02:26:47;;;;;;;46.93;28.40;;;17.60;99.90;;;;;;5030690;28;20205;-73
2023/08/18 02:29:13;;;;;;;52.87;27.40;;;17.60;99.90;;;;;;5031663;28;20190;-73
2023/08/18 02:31:38;;;;;;;58.03;28.83;;;17.50;99.90;;;;;;5031517;28;20178;-73
2023/08/18 02:34:04;;;;;;;55.93;28.13;;;17.50;99.90;;;;;;5031808;28;20187;-73
2023/08/18 02:36:29;;;;;;;48.33;27.30;;;17.50;99.90;;;;;;5031795;28;20751;-73
2023/08/18 02:38:55;;;;;;;45.67;26.63;;;17.50;99.90;;;;;;5031662;28;20649;-73
2023/08/18 02:41:21;;;;;;;53.57;27.73;;;17.50;99.90;;;;;;5031430;28;20258;-73
2023/08/18 02:43:50;;;;;;;50.33;27.10;;;17.50;99.90;;;;;;5031451;28;20202;-73
2023/08/18 02:46:16;;;;;;;54.63;27.23;;;17.50;99.90;;;;;;5031360;28;20186;-73
2023/08/18 02:48:42;;;;;;;52.70;28.03;;;17.50;99.90;;;;;;5031651;28;20657;-73
2023/08/18 02:51:09;;;;;;;52.63;26.73;;;17.40;99.90;;;;;;5031459;28;20547;-73
2023/08/18 02:53:39;;;;;;;58.40;27.60;;;17.40;99.90;;;;;;5030946;28;20206;-73
2023/08/18 02:56:05;;;;;;;59.13;26.20;;;17.30;99.90;;;;;;5031788;28;20573;-73
2023/08/18 02:58:33;;;;;;;53.67;27.30;;;17.30;99.90;;;;;;5031309;28;20180;-73
2023/08/18 03:01:04;;;;;;;53.37;26.83;;;17.30;99.90;;;;;;5031577;28;20546;-73
2023/08/18 03:03:30;;;;;;;53.40;26.97;;;17.30;99.90;;;;;;5031028;28;20195;-73
2023/08/18 03:06:03;;;;;;;49.63;26.97;;;17.30;99.90;;;;;;5030086;28;20264;-73
2023/08/18 03:08:28;;;;;;;52.80;26.97;;;17.30;99.90;;;;;;5031511;28;20163;-73
2023/08/18 03:10:59;;;;;;;52.57;26.47;;;17.30;99.90;;;;;;5031495;28;20222;-73
2023/08/18 03:13:24;;;;;;;49.73;26.47;;;17.30;99.90;;;;;;5030671;28;20559;-73
2023/08/18 03:15:50;;;;;;;55.40;27.00;;;17.30;99.90;;;;;;5030089;28;20180;-73
2023/08/18 03:18:16;;;;;;;56.47;27.43;;;17.30;99.90;;;;;;5031300;28;20176;-73
2023/08/18 03:20:43;;;;;;;52.63;26.50;;;17.30;99.90;;;;;;5030888;28;20180;-73
2023/08/18 03:23:13;;;;;;;52.50;26.87;;;17.30;99.90;;;;;;5030978;28;20582;-73
2023/08/18 03:25:38;;;;;;;62.40;28.03;;;17.30;99.90;;;;;;5031115;28;20215;-73
2023/08/18 03:28:04;;;;;;;61.33;27.13;;;17.30;99.90;;;;;;5029820;28;20192;-73
2023/08/18 03:30:30;;;;;;;56.60;25.93;;;17.20;99.90;;;;;;5030783;28;20203;-73
2023/08/18 03:32:57;;;;;;;55.40;26.60;;;17.20;99.90;;;;;;5030799;28;20171;-73
2023/08/18 03:35:22;;;;;;;50.07;25.73;;;17.30;99.90;;;;;;5031377;28;20234;-73
2023/08/18 03:37:48;;;;;;;55.87;26.93;;;17.30;99.90;;;;;;5031512;28;20649;-73
2023/08/18 03:40:14;;;;;;;55.17;26.43;;;17.30;99.90;;;;;;5035152;28;20168;-73
2023/08/18 03:42:40;;;;;;;50.57;25.13;;;17.30;99.90;;;;;;5034634;28;20182;-73
2023/08/18 03:45:06;;;;;;;49.10;25.57;;;17.30;99.90;;;;;;5034955;28;20294;-73
2023/08/18 03:47:31;;;;;;;53.20;24.93;;;17.30;99.90;;;;;;5034894;28;20171;-74
2023/08/18 03:49:57;;;;;;;52.33;26.60;;;17.30;99.90;;;;;;5034985;28;20229;-73
2023/08/18 03:52:23;;;;;;;51.43;24.57;;;17.30;99.90;;;;;;5034273;28;20176;-73
2023/08/18 03:54:48;;;;;;;54.27;26.20;;;17.30;99.90;;;;;;5034632;28;20214;-73
2023/08/18 03:57:14;;;;;;;58.57;26.80;;;17.30;99.90;;;;;;5033575;28;20183;-73
2023/08/18 03:59:39;;;;;;;48.07;23.87;;;17.30;99.90;;;;;;5034701;28;20206;-73
2023/08/18 04:02:05;;;;;;;58.53;26.93;;;17.30;99.90;;;;;;5034488;28;20821;-73
2023/08/18 04:04:30;;;;;;;56.90;25.27;;;17.20;99.90;;;;;;5034109;28;20211;-73
2023/08/18 04:06:56;;;;;;;51.37;24.70;;;17.20;99.90;;;;;;5034616;28;20630;-73
2023/08/18 04:09:22;;;;;;;51.43;25.80;;;17.20;99.90;;;;;;5034545;28;20194;-73
2023/08/18 04:11:48;;;;;;;49.83;23.73;;;17.20;99.90;;;;;;5033749;28;20202;-73
2023/08/18 04:14:15;;;;;;;62.33;26.00;;;17.20;99.90;;;;;;5034310;28;20262;-73
2023/08/18 04:16:41;;;;;;;61.57;26.73;;;17.20;99.90;;;;;;5034380;28;20199;-73
2023/08/18 04:19:07;;;;;;;61.43;26.87;;;17.20;99.90;;;;;;5034647;28;20214;-73
2023/08/18 04:21:33;;;;;;;62.27;27.13;;;17.20;99.90;;;;;;5034041;28;20176;-73
2023/08/18 04:24:00;;;;;;;57.30;27.10;;;17.20;99.90;;;;;;5034029;28;20217;-73
2023/08/18 04:26:27;;;;;;;67.50;26.17;;;17.20;99.90;;;;;;5034231;28;20254;-73
2023/08/18 04:28:52;;;;;;;58.47;27.03;;;17.20;99.90;;;;;;5034029;28;20223;-73
2023/08/18 04:31:18;;;;;;;57.37;24.30;;;17.20;99.90;;;;;;5034021;28;20203;-73
2023/08/18 04:33:44;;;;;;;65.17;27.60;;;17.30;99.90;;;;;;5032715;28;20305;-73
2023/08/18 04:36:09;;;;;;;59.50;26.80;;;17.30;99.90;;;;;;5034310;28;20179;-73
2023/08/18 04:38:35;;;;;;;51.73;25.00;;;17.40;99.90;;;;;;5033730;28;20254;-73
2023/08/18 04:41:02;;;;;;;65.13;25.73;;;17.40;99.90;;;;;;5033103;28;20199;-74
2023/08/18 04:43:30;;;;;;;51.80;26.20;;;17.40;99.90;;;;;;5033668;28;20203;-74
2023/08/18 04:45:57;;;;;;;56.33;26.17;;;17.50;99.90;;;;;;5033474;28;20206;-73
2023/08/18 04:48:23;;;;;;;63.20;25.60;;;17.50;99.90;;;;;;5032182;28;20183;-73
2023/08/18 04:50:49;;;;;;;66.90;28.10;;;17.50;99.90;;;;;;5032466;28;20166;-73
2023/08/18 04:53:15;;;;;;;69.63;27.03;;;17.60;99.90;;;;;;5033215;28;20188;-73
2023/08/18 04:55:42;;;;;;;65.80;26.67;;;17.70;99.90;;;;;;5033336;28;20198;-73
2023/08/18 04:58:12;;;;;;;66.20;27.47;;;17.70;99.90;;;;;;5033528;28;20175;-73
2023/08/18 05:00:39;;;;;;;56.53;26.17;;;17.80;99.90;;;;;;5032795;28;20175;-72
2023/08/18 05:03:05;;;;;;;63.47;26.00;;;17.80;99.90;;;;;;5032815;28;20202;-72
2023/08/18 05:05:33;;;;;;;66.50;25.93;;;17.80;99.90;;;;;;5031815;28;20207;-71
2023/08/18 05:07:58;;;;;;;57.37;25.80;;;18.00;99.90;;;;;;5032962;28;20164;-72
2023/08/18 05:10:24;;;;;;;52.73;24.30;;;18.00;99.90;;;;;;5032898;28;20317;-72
2023/08/18 05:12:50;;;;;;;62.00;26.80;;;18.00;99.90;;;;;;5032848;28;20187;-72
2023/08/18 05:15:16;;;;;;;62.93;26.27;;;18.10;99.90;;;;;;5033198;28;20171;-72
2023/08/18 05:17:42;;;;;;;65.30;26.90;;;18.20;99.90;;;;;;5032546;28;20238;-72
2023/08/18 05:20:08;;;;;;;57.20;24.97;;;18.20;99.90;;;;;;5033108;28;20190;-72
2023/08/18 05:22:33;;;;;;;54.83;24.67;;;18.30;99.90;;;;;;5032505;28;20198;-72
2023/08/18 05:24:59;;;;;;;48.83;23.37;;;18.30;99.90;;;;;;5033073;28;20199;-72
2023/08/18 05:27:25;;;;;;;54.73;24.83;;;18.40;99.90;;;;;;5032801;28;20210;-71
2023/08/18 05:29:51;;;;;;;57.90;24.83;;;18.40;99.90;;;;;;5032941;28;20176;-72
2023/08/18 05:32:17;;;;;;;49.13;23.40;;;18.50;99.90;;;;;;5032435;28;20700;-72
2023/08/18 05:34:42;;;;;;;51.20;23.90;;;18.60;99.90;;;;;;5032246;28;20203;-72
2023/08/18 05:37:08;;;;;;;52.80;23.73;;;18.70;99.90;;;;;;5032783;28;20649;-72
2023/08/18 05:39:33;;;;;;;49.03;21.93;;;18.80;99.90;;;;;;5032627;28;20171;-72
2023/08/18 05:41:59;;;;;;;44.50;21.17;;;18.80;99.90;;;;;;5031075;28;20176;-72
2023/08/18 05:44:25;;;;;;;42.37;20.37;;;18.80;99.90;;;;;;5032258;28;20799;-72
2023/08/18 05:46:50;;;;;;;41.57;22.30;;;18.80;99.90;;;;;;5032463;28;20203;-72
2023/08/18 05:49:16;;;;;;;47.83;22.80;;;18.90;99.90;;;;;;5032480;28;20184;-72
2023/08/18 05:51:42;;;;;;;39.87;20.13;;;18.90;99.90;;;;;;5030446;28;20175;-71
2023/08/18 05:54:09;;;;;;;43.70;22.37;;;19.00;99.90;;;;;;5032456;28;20195;-72
2023/08/18 05:56:34;;;;;;;42.73;21.03;;;19.00;99.90;;;;;;5032364;28;20225;-72
2023/08/18 05:59:00;;;;;;;44.53;21.77;;;19.00;99.90;;;;;;5032424;28;20187;-72
2023/08/18 06:01:26;;;;;;;41.10;21.83;;;19.20;99.90;;;;;;5031935;28;20172;-72
2023/08/18 06:03:51;;;;;;;36.70;19.97;;;19.30;99.90;;;;;;5030728;28;20199;-72
2023/08/18 06:06:17;;;;;;;38.60;21.60;;;19.40;99.90;;;;;;5031156;28;20262;-72
2023/08/18 06:08:42;;;;;;;44.30;20.70;;;19.60;99.90;;;;;;5031674;28;20176;-72
2023/08/18 06:11:08;;;;;;;37.70;21.23;;;19.70;99.90;;;;;;5031964;28;20194;-74
2023/08/18 06:13:34;;;;;;;37.37;19.87;;;19.90;99.90;;;;;;5031625;28;20263;-72
2023/08/18 06:16:03;;;;;;;34.55;20.90;;;19.90;99.90;;;;;;5032006;28;20226;-72
2023/08/18 06:18:29;;;;;;;36.83;20.23;;;20.10;99.90;;;;;;5031858;28;20185;-72
2023/08/18 06:20:55;;;;;;;35.27;20.27;;;20.10;99.90;;;;;;5031923;28;20168;-72
2023/08/18 06:23:20;;;;;;;37.63;19.80;;;20.10;99.90;;;;;;5031475;28;20195;-72
2023/08/18 06:25:46;;;;;;;33.53;20.50;;;20.20;99.90;;;;;;5031387;28;20696;-72
2023/08/18 06:28:11;;;;;;;30.83;19.53;;;20.20;99.90;;;;;;5031606;28;20233;-72
2023/08/18 06:30:37;;;;;;;32.37;19.53;;;20.20;99.90;;;;;;5031170;28;20175;-72
2023/08/18 06:33:03;;;;;;;31.67;20.13;;;20.20;99.90;;;;;;5031316;28;20249;-72
2023/08/18 06:35:28;;;;;;;38.10;19.53;;;20.30;99.90;;;;;;5031347;28;20178;-72
2023/08/18 06:37:54;;;;;;;29.63;17.87;;;20.30;99.90;;;;;;5030289;28;20182;-72
2023/08/18 06:40:20;;;;;;;30.17;18.20;;;20.40;99.90;;;;;;5031467;28;20187;-72
2023/08/18 06:42:45;;;;;;;25.57;18.17;;;20.50;99.90;;;;;;5030880;28;20172;-72
2023/08/18 06:45:11;;;;;;;25.40;18.87;;;20.60;99.90;;;;;;5031193;28;20203;-72
2023/08/18 06:47:36;;;;;;;23.92;17.30;;;20.70;99.90;;;;;;5031102;28;20186;-72
2023/08/18 06:50:05;;;;;;;23.10;18.38;;;20.90;99.90;;;;;;5031472;28;20171;-72
2023/08/18 06:52:35;;;;;;;22.95;16.50;;;21.00;99.90;;;;;;5030393;28;20167;-72
2023/08/18 06:55:01;;;;;;;22.03;16.30;;;21.10;99.90;;;;;;5031249;28;20202;-72
2023/08/18 06:57:27;;;;;;;20.47;15.93;;;21.10;99.90;;;;;;5031123;28;20190;-72
2023/08/18 06:59:53;;;;;;;20.08;15.75;;;21.30;99.90;;;;;;5031078;28;20187;-73
2023/08/18 07:02:18;;;;;;;25.50;16.20;;;21.50;99.90;;;;;;5030700;28;20179;-72
2023/08/18 07:04:44;;;;;;;19.08;14.50;;;21.60;99.90;;;;;;5030822;28;20697;-72
2023/08/18 07:07:10;;;;;;;18.02;14.13;;;21.90;99.90;;;;;;5029678;28;20202;-72
2023/08/18 07:09:35;;;;;;;17.73;14.65;;;22.20;99.90;;;;;;5031000;28;20657;-72
2023/08/18 07:12:01;;;;;;;16.70;13.07;;;22.50;99.90;;;;;;5031497;28;20242;-72
2023/08/18 07:14:26;;;;;;;14.80;11.90;;;22.70;99.90;;;;;;5036895;28;20624;-72
2023/08/18 07:16:52;;;;;;;14.98;12.27;;;22.90;99.90;;;;;;5037475;28;20293;-72
2023/08/18 07:19:17;;;;;;;16.10;14.00;;;22.90;99.90;;;;;;5036747;28;20181;-72
2023/08/18 07:21:43;;;;;;;15.13;13.50;;;22.90;99.90;;;;;;5037465;28;20167;-72
2023/08/18 07:24:09;;;;;;;16.92;12.85;;;22.90;99.90;;;;;;5037771;28;20203;-72
2023/08/18 07:26:34;;;;;;;17.60;14.13;;;23.10;99.90;;;;;;5037170;28;20175;-72
2023/08/18 07:29:00;;;;;;;15.60;13.93;;;23.30;99.90;;;;;;5037413;28;20562;-72
2023/08/18 07:31:25;;;;;;;15.50;13.90;;;23.40;99.90;;;;;;5037122;28;20665;-72
2023/08/18 07:33:52;;;;;;;17.52;12.90;;;23.70;99.90;;;;;;5037397;28;20358;-72
2023/08/18 07:36:18;;;;;;;13.48;11.45;;;23.90;99.90;;;;;;5037377;28;20194;-72
2023/08/18 07:38:44;;;;;;;13.18;11.70;;;24.40;99.90;;;;;;5037146;28;20212;-72
2023/08/18 07:41:09;;;;;;;12.45;11.15;;;24.90;99.90;;;;;;5036252;28;20593;-72
2023/08/18 07:43:35;;;;;;;12.65;11.35;;;25.40;99.90;;;;;;5035638;28;20195;-73
2023/08/18 07:46:01;;;;;;;14.38;11.95;;;25.70;99.90;;;;;;5036947;28;20571;-73
2023/08/18 07:48:26;;;;;;;11.65;9.57;;;26.20;99.90;;;;;;5036290;28;20232;-72
2023/08/18 07:50:52;;;;;;;14.57;11.18;;;26.70;99.90;;;;;;5037373;28;20249;-73
2023/08/18 07:53:18;;;;;;;12.70;11.48;;;27.10;99.90;;;;;;5035063;28;20198;-73
2023/08/18 07:55:43;;;;;;;11.32;10.10;;;27.50;99.90;;;;;;5035893;28;20207;-73
2023/08/18 07:58:09;;;;;;;14.77;10.43;;;28.00;99.90;;;;;;5036849;28;20183;-73
2023/08/18 08:00:35;;;;;;;14.57;11.60;;;28.40;99.90;;;;;;5036992;28;20186;-72
2023/08/18 08:03:01;;;;;;;9.57;8.63;;;28.70;99.90;;;;;;5036683;28;20177;-73
2023/08/18 08:05:26;;;;;;;10.70;9.55;;;28.90;99.90;;;;;;5036760;28;20195;-71
2023/08/18 08:07:52;;;;;;;12.38;10.32;;;29.10;99.90;;;;;;5036993;28;20171;-73
2023/08/18 08:10:18;;;;;;;10.13;9.13;;;29.00;99.90;;;;;;5036861;28;20587;-73
2023/08/18 08:12:45;;;;;;;11.85;10.65;;;28.60;99.90;;;;;;5036147;28;20206;-73
2023/08/18 08:15:16;;;;;;;11.68;10.55;;;28.20;99.90;;;;;;5034830;28;20266;-73
2023/08/18 08:17:41;;;;;;;13.90;10.88;;;27.70;99.90;;;;;;5037025;28;20175;-73
2023/08/18 08:20:14;;;;;;;15.65;10.32;;;27.70;99.90;;;;;;5036698;28;20645;-73
2023/08/18 08:22:41;;;;;;;10.70;9.15;;;27.40;99.90;;;;;;5036712;28;20171;-73
2023/08/18 08:25:07;;;;;;;10.98;9.50;;;27.40;99.90;;;;;;5034342;28;20567;-73
2023/08/18 08:27:33;;;;;;;13.30;10.07;;;27.70;99.90;;;;;;5033737;28;20228;-73
2023/08/18 08:29:59;;;;;;;11.93;10.52;;;28.20;99.90;;;;;;5033984;28;20545;-73
2023/08/18 08:32:25;;;;;;;11.70;9.48;;;28.50;99.90;;;;;;5033242;28;20191;-73
2023/08/18 08:34:51;;;;;;;11.38;9.95;;;28.80;99.90;;;;;;5033486;28;20661;-73
2023/08/18 08:37:17;;;;;;;9.98;9.07;;;28.80;99.90;;;;;;5033608;28;20171;-73
2023/08/18 08:39:43;;;;;;;13.00;10.57;;;29.00;99.90;;;;;;5033611;28;20199;-73
2023/08/18 08:42:10;;;;;;;10.60;9.55;;;29.00;99.90;;;;;;5032752;28;20182;-73
2023/08/18 08:44:36;;;;;;;11.30;9.20;;;29.30;99.90;;;;;;5032991;28;20554;-73
2023/08/18 08:47:02;;;;;;;10.23;8.35;;;29.80;99.90;;;;;;5032000;28;20178;-73
2023/08/18 08:49:29;;;;;;;11.27;9.80;;;30.00;99.90;;;;;;5033229;28;20180;-73
2023/08/18 08:51:59;;;;;;;10.45;9.35;;;30.60;99.90;;;;;;5033115;28;20179;-74
2023/08/18 08:54:26;;;;;;;8.90;7.88;;;31.10;99.90;;;;;;5033259;28;20245;-74
2023/08/18 08:56:52;;;;;;;10.10;8.15;;;31.80;99.90;;;;;;5033296;28;20234;-73
2023/08/18 08:59:18;;;;;;;10.30;8.63;;;32.30;99.90;;;;;;5032786;28;20711;-74
2023/08/18 09:01:44;;;;;;;10.02;9.00;;;32.60;99.90;;;;;;5031508;28;20199;-74
2023/08/18 09:04:10;;;;;;;11.43;10.32;;;32.80;99.90;;;;;;5032805;28;20438;-74
2023/08/18 09:06:36;;;;;;;13.73;12.50;;;32.90;99.90;;;;;;5032807;28;20175;-74
2023/08/18 09:09:02;;;;;;;13.20;11.82;;;32.70;99.90;;;;;;5033156;28;20603;-74
2023/08/18 09:11:46;;;;;;;13.13;10.40;;;32.40;99.90;;;;;;5032661;28;20215;-74
2023/08/18 09:14:16;;;;;;;9.55;8.60;;;31.80;99.90;;;;;;5032890;28;20190;-74
2023/08/18 09:16:44;;;;;;;9.65;8.65;;;31.40;99.90;;;;;;5032835;28;20172;-73
2023/08/18 09:19:13;;;;;;;12.23;10.93;;;31.20;99.90;;;;;;5033110;28;20515;-73
2023/08/18 09:21:39;;;;;;;7.78;6.97;;;31.50;99.90;;;;;;5032546;28;20176;-73
2023/08/18 09:24:05;;;;;;;7.35;6.50;;;31.70;99.90;;;;;;5032739;28;20198;-73
2023/08/18 09:26:31;;;;;;;6.95;6.18;;;31.70;99.90;;;;;;5032717;28;20171;-74
2023/08/18 09:28:57;;;;;;;6.82;6.13;;;31.60;99.90;;;;;;5033078;28;20621;-74
2023/08/18 09:31:22;;;;;;;7.80;7.00;;;31.30;99.90;;;;;;5031905;28;20188;-73
2023/08/18 09:33:50;;;;;;;6.85;6.25;;;30.90;99.90;;;;;;5032559;28;20669;-73
2023/08/18 09:36:15;;;;;;;6.15;5.45;;;30.60;99.90;;;;;;5031705;28;20203;-73
2023/08/18 09:38:42;;;;;;;7.95;5.50;;;30.70;99.90;;;;;;5032224;28;20203;-73
2023/08/18 09:41:09;;;;;;;6.15;5.47;;;30.70;99.90;;;;;;5032444;28;20653;-73
2023/08/18 09:43:35;;;;;;;5.72;5.22;;;31.00;99.90;;;;;;5031892;28;20246;-73
2023/08/18 09:46:04;;;;;;;8.73;7.93;;;31.30;99.90;;;;;;5032412;28;20199;-74
2023/08/18 09:48:34;;;;;;;9.55;7.65;;;31.70;99.90;;;;;;5030778;28;20662;-73
2023/08/18 09:51:00;;;;;;;8.52;7.72;;;32.00;99.90;;;;;;5032285;28;20227;-70
2023/08/18 09:53:30;;;;;;;11.02;10.02;;;32.30;99.90;;;;;;5031855;28;20192;-73
2023/08/18 09:56:03;;;;;;;8.10;7.18;;;32.30;99.90;;;;;;5032536;28;20178;-73
2023/08/18 09:58:36;;;;;;;9.65;8.75;;;32.10;99.90;;;;;;5030715;28;20278;-73
2023/08/18 10:01:05;;;;;;;13.20;12.00;;;31.90;99.90;;;;;;5031135;28;20180;-72
2023/08/18 10:03:35;;;;;;;8.25;7.55;;;31.30;99.90;;;;;;5031469;28;20199;-73
2023/08/18 10:06:01;;;;;;;9.77;8.88;;;31.10;99.90;;;;;;5032024;28;20206;-73
2023/08/18 10:08:27;;;;;;;10.77;9.73;;;31.20;99.90;;;;;;5032058;28;20175;-73
2023/08/18 10:10:52;;;;;;;9.60;8.52;;;31.20;99.90;;;;;;5032007;28;20171;-73
2023/08/18 10:13:19;;;;;;;13.85;12.75;;;31.40;99.90;;;;;;5031617;28;20683;-74
2023/08/18 10:15:46;;;;;;;10.88;9.85;;;31.50;99.90;;;;;;5031720;28;20188;-73
2023/08/18 10:18:12;;;;;;;11.02;9.93;;;31.60;99.90;;;;;;5032026;28;20174;-73
2023/08/18 10:21:03;;;;;;;13.38;12.25;;;31.80;99.90;;;;;;5031476;28;20596;-73
2023/08/18 10:23:30;;;;;;;12.63;11.43;;;31.60;99.90;;;;;;5029369;28;20636;-73
2023/08/18 10:25:57;;;;;;;9.55;8.63;;;31.60;99.90;;;;;;5032017;28;20359;-74
2023/08/18 10:28:28;;;;;;;12.30;11.30;;;31.70;99.90;;;;;;5031709;28;20191;-74
2023/08/18 10:31:05;;;;;;;9.50;8.60;;;31.80;99.90;;;;;;5030036;28;20195;-74
2023/08/18 10:33:32;;;;;;;12.13;10.93;;;32.00;99.90;;;;;;5031134;28;20229;-74
2023/08/18 10:36:01;;;;;;;12.13;11.02;;;32.10;99.90;;;;;;5031779;28;20241;-74
2023/08/18 10:38:28;;;;;;;13.45;12.02;;;31.90;99.90;;;;;;5031520;28;20271;-74
2023/08/18 10:40:54;;;;;;;10.93;9.93;;;31.80;99.90;;;;;;5030690;28;20172;-74
2023/08/18 10:43:20;;;;;;;11.23;9.77;;;31.80;99.90;;;;;;5031603;28;20679;-74
2023/08/18 10:45:58;;;;;;;9.48;8.30;;;31.80;99.90;;;;;;5031389;28;20216;-73
2023/08/18 10:48:32;;;;;;;9.98;8.40;;;31.90;99.90;;;;;;5028529;28;20167;-74
2023/08/18 10:50:58;;;;;;;10.93;8.90;;;31.90;99.90;;;;;;5031429;28;20218;-74
2023/08/18 10:53:23;;;;;;;9.75;8.85;;;31.80;99.90;;;;;;5029344;28;20623;-74
2023/08/18 10:55:53;;;;;;;9.48;7.53;;;31.70;99.90;;;;;;5031353;28;20597;-74
2023/08/18 10:58:19;;;;;;;9.52;8.52;;;31.50;99.90;;;;;;5031286;28;20163;-74
2023/08/18 11:00:45;;;;;;;11.75;8.93;;;31.40;99.90;;;;;;5030736;28;20178;-73
2023/08/18 11:03:12;;;;;;;9.45;8.57;;;31.40;99.90;;;;;;5031072;28;20195;-73
2023/08/18 11:05:39;;;;;;;10.52;9.63;;;31.10;99.90;;;;;;5030905;28;20206;-74
2023/08/18 11:08:09;;;;;;;9.40;8.50;;;31.00;99.90;;;;;;5031366;28;20183;-74
2023/08/18 11:10:40;;;;;;;10.13;8.52;;;30.90;99.90;;;;;;5031260;28;20160;-74
2023/08/18 11:13:25;;;;;;;10.50;8.90;;;31.00;99.90;;;;;;5030805;28;20184;-74
2023/08/18 11:15:55;;;;;;;12.35;9.10;;;31.00;99.90;;;;;;5030536;28;20180;-74
2023/08/18 11:18:21;;;;;;;9.55;8.65;;;31.20;99.90;;;;;;5031231;28;20178;-74
2023/08/18 11:20:48;;;;;;;9.10;8.30;;;31.00;99.90;;;;;;5029011;28;20191;-74
2023/08/18 11:23:14;;;;;;;8.65;7.82;;;31.10;99.90;;;;;;5029450;28;20234;-74
2023/08/18 11:25:40;;;;;;;9.32;7.60;;;31.30;99.90;;;;;;5030873;28;20203;-74
2023/08/18 11:28:05;;;;;;;10.05;7.55;;;31.50;99.90;;;;;;5030800;28;20655;-74
2023/08/18 11:30:32;;;;;;;8.20;7.60;;;31.60;99.90;;;;;;5030692;28;20582;-74
2023/08/18 11:32:57;;;;;;;8.32;7.38;;;31.70;99.90;;;;;;5030534;28;20443;-74
2023/08/18 11:35:25;;;;;;;7.78;7.05;;;31.70;99.90;;;;;;5030942;28;20175;-74
2023/08/18 11:37:52;;;;;;;8.05;7.25;;;31.50;99.90;;;;;;5030826;28;20168;-74
2023/08/18 11:40:21;;;;;;;7.45;6.75;;;31.50;99.90;;;;;;5030898;28;20521;-74
2023/08/18 11:42:49;;;;;;;7.32;6.72;;;31.60;99.90;;;;;;5030084;28;20175;-74
2023/08/18 11:45:19;;;;;;;7.85;7.15;;;31.80;99.90;;;;;;5030533;28;20265;-74
2023/08/18 11:48:03;;;;;;;6.78;6.07;;;31.90;99.90;;;;;;5030580;28;20175;-74
2023/08/18 11:50:35;;;;;;;6.70;6.00;;;32.10;99.90;;;;;;5030676;28;20171;-74
2023/08/18 11:53:03;;;;;;;6.72;6.13;;;32.40;99.90;;;;;;5028743;28;20204;-74
2023/08/18 11:55:34;;;;;;;6.10;5.50;;;32.50;99.90;;;;;;5030748;28;20163;-74
2023/08/18 11:58:09;;;;;;;6.82;5.90;;;32.60;99.90;;;;;;5030733;28;20168;-71
2023/08/18 12:00:37;;;;;;;6.70;6.10;;;32.60;99.90;;;;;;5034120;28;20195;-73
2023/08/18 12:03:05;;;;;;;8.82;6.40;;;32.30;99.90;;;;;;5033925;28;20617;-74
2023/08/18 12:05:31;;;;;;;6.32;5.68;;;32.30;99.90;;;;;;5034280;28;20274;-73
2023/08/18 12:07:59;;;;;;;7.25;6.55;;;32.30;99.90;;;;;;5034364;28;20738;-73
2023/08/18 12:10:25;;;;;;;8.13;6.25;;;32.40;99.90;;;;;;5034167;28;20167;-74
2023/08/18 12:12:55;;;;;;;7.53;6.82;;;32.40;99.90;;;;;;5031916;28;20186;-74
2023/08/18 12:15:21;;;;;;;7.47;6.80;;;32.40;99.90;;;;;;5032894;28;20218;-74
2023/08/18 12:17:48;;;;;;;9.52;5.82;;;32.30;99.90;;;;;;5033728;28;20191;-74
2023/08/18 12:20:14;;;;;;;6.88;6.22;;;32.50;99.90;;;;;;5032795;28;20529;-74
2023/08/18 12:22:39;;;;;;;8.25;7.30;;;32.50;99.90;;;;;;5033706;28;20179;-74
2023/08/18 12:25:06;;;;;;;7.78;6.95;;;32.60;99.90;;;;;;5034077;28;20266;-74
2023/08/18 12:27:33;;;;;;;9.57;8.77;;;32.90;99.90;;;;;;5033714;28;20191;-74
2023/08/18 12:30:00;;;;;;;9.50;8.82;;;33.10;99.90;;;;;;5034146;28;20250;-74